Time;durP1;ratioP1;P1;durP2;ratioP2;P2;SDS_P1;SDS_P2;PMS_P1;PMS_P2;Temp;Humidity;BMP_temperature;BMP_pressure;BME280_temperature;BME280_humidity;BME280_pressure;Samples;Min_cycle;Max_cycle;Signal;HPM_P1;HPM_P2
2024/01/29 00:02:18;;;;;;;;;;;4.00;99.90;;;;;;5031347;28;19936;-74
2024/01/29 00:04:44;;;;;;;;;;;3.90;99.90;;;;;;5030892;28;20380;-74
2024/01/29 00:07:10;;;;;;;;;;;4.00;99.90;;;;;;5031344;28;20391;-74
2024/01/29 00:09:35;;;;;;;;;;;4.10;99.90;;;;;;5031238;28;19999;-74
2024/01/29 00:12:01;;;;;;;;;;;5.20;99.90;;;;;;5030557;28;19925;-72
2024/01/29 00:14:27;;;;;;;;;;;3.80;99.90;;;;;;5024754;28;20032;-72
2024/01/29 00:16:52;;;;;;;;;;;3.80;99.90;;;;;;5011834;28;20052;-71
2024/01/29 00:19:18;;;;;;;;;;;3.70;99.90;;;;;;5011565;28;20364;-72
2024/01/29 00:21:43;;;;;;;;;;;3.70;99.90;;;;;;5015958;28;19976;-71
2024/01/29 00:24:09;;;;;;;;;;;3.70;99.90;;;;;;5016533;28;19933;-72
2024/01/29 00:26:37;;;;;;;;;;;3.70;99.90;;;;;;5015270;28;19936;-72
2024/01/29 00:29:02;;;;;;;;;;;3.80;99.90;;;;;;5015314;28;19976;-72
2024/01/29 00:31:28;;;;;;;;;;;3.60;99.90;;;;;;5015433;28;19925;-71
2024/01/29 00:33:53;;;;;;;;;;;3.60;99.90;;;;;;5015850;28;19925;-71
2024/01/29 00:36:19;;;;;;;;;;;3.60;99.90;;;;;;5016462;28;20291;-72
2024/01/29 00:38:44;;;;;;;;;;;3.40;99.90;;;;;;5015222;28;20364;-72
2024/01/29 00:41:10;;;;;;;;;;;3.40;99.90;;;;;;5014257;28;19925;-71
2024/01/29 00:43:35;;;;;;;;;;;3.30;99.90;;;;;;5014795;28;19937;-72
2024/01/29 00:46:01;;;;;;;;;;;3.30;99.90;;;;;;5014626;28;20389;-72
2024/01/29 00:48:26;;;;;;;;;;;3.20;99.90;;;;;;5014995;28;20389;-72
2024/01/29 00:50:52;;;;;;;;;;;3.00;99.90;;;;;;5015122;28;20293;-72
2024/01/29 00:53:18;;;;;;;;;;;2.90;99.90;;;;;;5026157;28;20461;-71
2024/01/29 00:55:45;;;;;;;;;;;2.90;99.90;;;;;;5035849;28;19932;-72
2024/01/29 00:58:11;;;;;;;;;;;3.80;99.90;;;;;;5041481;28;19924;-72
2024/01/29 01:00:38;;;;;;;;;;;2.70;99.90;;;;;;5054235;28;19924;-72
2024/01/29 01:03:07;;;;;;;;;;;2.70;99.90;;;;;;5043952;28;20404;-72
2024/01/29 01:05:33;;;;;;;;;;;2.70;99.90;;;;;;5034639;28;19925;-71
2024/01/29 01:07:59;;;;;;;;;;;2.70;99.90;;;;;;5034047;28;19928;-72
2024/01/29 01:10:24;;;;;;;;;;;2.90;99.90;;;;;;5034591;28;19925;-71
2024/01/29 01:12:50;;;;;;;;;;;2.70;99.90;;;;;;5033939;28;19940;-72
2024/01/29 01:15:15;;;;;;;;;;;2.60;99.90;;;;;;5033658;28;20011;-72
2024/01/29 01:17:41;;;;;;;;;;;2.60;99.90;;;;;;5035838;28;20277;-72
2024/01/29 01:20:06;;;;;;;;;;;2.60;99.90;;;;;;5034109;28;19925;-73
2024/01/29 01:22:32;;;;;;;;;;;2.60;99.90;;;;;;5029634;28;19921;-73
2024/01/29 01:24:57;;;;;;;;;;;2.60;99.90;;;;;;5014748;28;19971;-73
2024/01/29 01:27:24;;;;;;;;;;;2.70;99.90;;;;;;5014372;28;19968;-73
2024/01/29 01:29:49;;;;;;;;;;;2.70;99.90;;;;;;5013975;28;20383;-73
2024/01/29 01:32:15;;;;;;;;;;;2.70;99.90;;;;;;5013037;28;20012;-73
2024/01/29 01:34:41;;;;;;;;;;;2.70;99.90;;;;;;5014476;28;19971;-73
2024/01/29 01:37:07;;;;;;;;;;;2.80;99.90;;;;;;5015959;28;19977;-73
2024/01/29 01:39:32;;;;;;;;;;;4.30;99.90;;;;;;5034928;28;19931;-73
2024/01/29 01:41:58;;;;;;;;;;;2.90;99.90;;;;;;5033708;28;19928;-72
2024/01/29 01:44:23;;;;;;;;;;;2.90;99.90;;;;;;5032667;28;19925;-73
2024/01/29 01:46:49;;;;;;;;;;;2.90;99.90;;;;;;5033573;28;19925;-73
2024/01/29 01:49:14;;;;;;;;;;;2.90;99.90;;;;;;5033847;28;19948;-73
2024/01/29 01:51:41;;;;;;;;;;;2.90;99.90;;;;;;5015216;28;19930;-73
2024/01/29 01:54:07;;;;;;;;;;;2.90;99.90;;;;;;5013475;28;19932;-73
2024/01/29 01:56:33;;;;;;;;;;;3.00;99.90;;;;;;5013184;28;19925;-73
2024/01/29 01:58:59;;;;;;;;;;;3.00;99.90;;;;;;5028107;28;19931;-73
2024/01/29 02:01:26;;;;;;;;;;;3.00;99.90;;;;;;5034848;28;19975;-73
2024/01/29 02:03:51;;;;;;;;;;;3.20;99.90;;;;;;5033230;28;19925;-73
2024/01/29 02:06:17;;;;;;;;;;;3.40;99.90;;;;;;5033007;28;20013;-73
2024/01/29 02:08:42;;;;;;;;;;;3.00;99.90;;;;;;5033187;28;19932;-73
2024/01/29 02:11:08;;;;;;;;;;;2.90;99.90;;;;;;5032711;28;19968;-73
2024/01/29 02:13:33;;;;;;;;;;;2.90;99.90;;;;;;5032908;28;19925;-73
2024/01/29 02:16:03;;;;;;;;;;;2.90;99.90;;;;;;5032818;28;20363;-73
2024/01/29 02:18:29;;;;;;;;;;;2.90;99.90;;;;;;5022329;28;19925;-74
2024/01/29 02:20:55;;;;;;;;;;;3.00;99.90;;;;;;5013024;28;20153;-73
2024/01/29 02:23:20;;;;;;;;;;;3.20;99.90;;;;;;5013236;28;19960;-73
2024/01/29 02:25:46;;;;;;;;;;;3.30;99.90;;;;;;5012375;28;19926;-73
2024/01/29 02:28:11;;;;;;;;;;;3.30;99.90;;;;;;5013501;28;19933;-73
2024/01/29 02:30:37;;;;;;;;;;;3.20;99.90;;;;;;5024842;28;19932;-73
2024/01/29 02:33:02;;;;;;;;;;;3.20;99.90;;;;;;5031800;28;19928;-73
2024/01/29 02:35:28;;;;;;;;;;;3.20;99.90;;;;;;5032798;28;19925;-73
2024/01/29 02:37:54;;;;;;;;;;;3.20;99.90;;;;;;5033362;28;20297;-73
2024/01/29 02:40:19;;;;;;;;;;;3.00;99.90;;;;;;5033068;28;19929;-73
2024/01/29 02:42:45;;;;;;;;;;;2.90;99.90;;;;;;5027504;28;20293;-73
2024/01/29 02:45:10;;;;;;;;;;;2.90;99.90;;;;;;5012634;28;19926;-73
2024/01/29 02:47:36;;;;;;;;;;;2.80;99.90;;;;;;5012190;28;19931;-73
2024/01/29 02:50:01;;;;;;;;;;;2.80;99.90;;;;;;5012886;28;19926;-73
2024/01/29 02:52:28;;;;;;;;;;;2.80;99.90;;;;;;5013915;28;19925;-73
2024/01/29 02:54:53;;;;;;;;;;;2.70;99.90;;;;;;5012094;28;19925;-73
2024/01/29 02:57:24;;;;;;;;;;;4.10;99.90;;;;;;5012552;28;19938;-73
2024/01/29 02:59:50;;;;;;;;;;;2.60;99.90;;;;;;5031645;28;19921;-74
2024/01/29 03:02:15;;;;;;;;;;;2.70;99.90;;;;;;5031848;28;20019;-73
2024/01/29 03:04:41;;;;;;;;;;;2.80;99.90;;;;;;5029070;28;20269;-73
2024/01/29 03:07:06;;;;;;;;;;;3.90;99.90;;;;;;5011623;28;20482;-73
2024/01/29 03:09:32;;;;;;;;;;;2.80;99.90;;;;;;5012707;28;19932;-73
2024/01/29 03:11:57;;;;;;;;;;;2.80;99.90;;;;;;5012668;28;19925;-73
2024/01/29 03:14:23;;;;;;;;;;;2.80;99.90;;;;;;5011453;28;20027;-73
2024/01/29 03:16:51;;;;;;;;;;;2.80;99.90;;;;;;5012538;28;20009;-74
2024/01/29 03:19:16;;;;;;;;;;;2.80;99.90;;;;;;5012453;28;20328;-73
2024/01/29 03:21:42;;;;;;;;;;;3.30;99.90;;;;;;5011814;28;19925;-72
2024/01/29 03:24:08;;;;;;;;;;;2.80;99.90;;;;;;5011863;28;19925;-73
2024/01/29 03:26:33;;;;;;;;;;;2.80;99.90;;;;;;5014311;28;19921;-72
2024/01/29 03:28:59;;;;;;;;;;;2.80;99.90;;;;;;5031090;28;19971;-73
2024/01/29 03:31:25;;;;;;;;;;;2.70;99.90;;;;;;5032096;28;19978;-73
2024/01/29 03:33:53;;;;;;;;;;;2.60;99.90;;;;;;5032078;28;20369;-73
2024/01/29 03:36:19;;;;;;;;;;;2.60;99.90;;;;;;5011807;28;20381;-73
2024/01/29 03:38:45;;;;;;;;;;;2.60;99.90;;;;;;5012403;28;19929;-73
2024/01/29 03:41:10;;;;;;;;;;;2.80;99.90;;;;;;5011936;28;20369;-73
2024/01/29 03:43:36;;;;;;;;;;;2.50;99.90;;;;;;5011189;28;20332;-73
2024/01/29 03:46:01;;;;;;;;;;;2.50;99.90;;;;;;5011820;28;19933;-73
2024/01/29 03:48:30;;;;;;;;;;;2.60;99.90;;;;;;5011937;28;19926;-72
2024/01/29 03:50:55;;;;;;;;;;;2.50;99.90;;;;;;5021324;28;19933;-73
2024/01/29 03:53:20;;;;;;;;;;;2.60;99.90;;;;;;5031292;28;20059;-73
2024/01/29 03:55:47;;;;;;;;;;;2.60;99.90;;;;;;5031024;28;19925;-73
2024/01/29 03:58:12;;;;;;;;;;;2.50;99.90;;;;;;5030417;28;19976;-73
2024/01/29 04:00:38;;;;;;;;;;;2.50;99.90;;;;;;5031422;28;19968;-73
2024/01/29 04:03:04;;;;;;;;;;;2.60;99.90;;;;;;5030863;28;20292;-73
2024/01/29 04:05:30;;;;;;;;;;;2.60;99.90;;;;;;5031610;28;20008;-73
2024/01/29 04:07:55;;;;;;;;;;;2.60;99.90;;;;;;5031403;28;20055;-73
2024/01/29 04:10:24;;;;;;;;;;;2.80;99.90;;;;;;5030982;28;19929;-73
2024/01/29 04:12:49;;;;;;;;;;;3.60;99.90;;;;;;5030895;28;19925;-73
2024/01/29 04:15:15;;;;;;;;;;;3.10;99.90;;;;;;5031067;28;19952;-73
2024/01/29 04:17:40;;;;;;;;;;;3.70;99.90;;;;;;5030536;28;19925;-73
2024/01/29 04:20:06;;;;;;;;;;;3.10;99.90;;;;;;5011172;28;19932;-73
2024/01/29 04:22:32;;;;;;;;;;;3.10;99.90;;;;;;5011047;28;19980;-74
2024/01/29 04:24:58;;;;;;;;;;;3.10;99.90;;;;;;5011013;28;19929;-73
2024/01/29 04:27:23;;;;;;;;;;;3.10;99.90;;;;;;5011409;28;19925;-73
2024/01/29 04:29:55;;;;;;;;;;;3.00;99.90;;;;;;5011573;28;19979;-73
2024/01/29 04:32:21;;;;;;;;;;;3.00;99.90;;;;;;5010113;28;20364;-73
2024/01/29 04:34:47;;;;;;;;;;;3.00;99.90;;;;;;5011350;28;20017;-73
2024/01/29 04:37:13;;;;;;;;;;;3.70;99.90;;;;;;5018608;28;19936;-74
2024/01/29 04:39:39;;;;;;;;;;;3.30;99.90;;;;;;5031071;28;19925;-73
2024/01/29 04:42:04;;;;;;;;;;;3.10;99.90;;;;;;5030774;28;19929;-73
2024/01/29 04:44:30;;;;;;;;;;;3.00;99.90;;;;;;5030913;28;19932;-73
2024/01/29 04:46:55;;;;;;;;;;;3.00;99.90;;;;;;5030441;28;19929;-73
2024/01/29 04:49:21;;;;;;;;;;;3.00;99.90;;;;;;5030699;28;19925;-73
2024/01/29 04:51:46;;;;;;;;;;;3.00;99.90;;;;;;5015929;28;20365;-73
2024/01/29 04:54:12;;;;;;;;;;;3.00;99.90;;;;;;5010662;28;19932;-73
2024/01/29 04:56:37;;;;;;;;;;;3.60;99.90;;;;;;5011411;28;19925;-73
2024/01/29 04:59:03;;;;;;;;;;;3.00;99.90;;;;;;5012253;28;19972;-73
2024/01/29 05:01:31;;;;;;;;;;;3.00;99.90;;;;;;5011002;28;20373;-73
2024/01/29 05:03:57;;;;;;;;;;;3.00;99.90;;;;;;5011169;28;19932;-73
2024/01/29 05:06:23;;;;;;;;;;;3.00;99.90;;;;;;5010922;28;19925;-73
2024/01/29 05:08:48;;;;;;;;;;;4.10;99.90;;;;;;5014537;28;19932;-73
2024/01/29 05:11:14;;;;;;;;;;;3.90;99.90;;;;;;5014500;28;19929;-73
2024/01/29 05:13:39;;;;;;;;;;;3.00;99.90;;;;;;5015171;28;19987;-73
2024/01/29 05:16:06;;;;;;;;;;;3.00;99.90;;;;;;5015403;28;19976;-73
2024/01/29 05:18:32;;;;;;;;;;;3.00;99.90;;;;;;5015738;28;19932;-73
2024/01/29 05:20:58;;;;;;;;;;;3.00;99.90;;;;;;5014043;28;19925;-73
2024/01/29 05:23:23;;;;;;;;;;;2.90;99.90;;;;;;5014535;28;20038;-72
2024/01/29 05:25:49;;;;;;;;;;;3.60;99.90;;;;;;5014427;28;20449;-73
2024/01/29 05:28:15;;;;;;;;;;;3.90;99.90;;;;;;5013248;28;20301;-72
2024/01/29 05:30:40;;;;;;;;;;;3.30;99.90;;;;;;5014266;28;19972;-72
2024/01/29 05:33:06;;;;;;;;;;;2.80;99.90;;;;;;5013740;28;20328;-72
2024/01/29 05:35:31;;;;;;;;;;;2.90;99.90;;;;;;5013910;28;19925;-73
2024/01/29 05:37:57;;;;;;;;;;;3.00;99.90;;;;;;5022493;28;19932;-72
2024/01/29 05:40:22;;;;;;;;;;;4.10;99.90;;;;;;5033332;28;19948;-73
2024/01/29 05:42:52;;;;;;;;;;;3.00;99.90;;;;;;5033181;28;19925;-72
2024/01/29 05:45:18;;;;;;;;;;;3.10;99.90;;;;;;5033467;28;19955;-72
2024/01/29 05:47:44;;;;;;;;;;;3.60;99.90;;;;;;5033945;28;20012;-72
2024/01/29 05:50:09;;;;;;;;;;;3.10;99.90;;;;;;5032969;28;20363;-72
2024/01/29 05:52:35;;;;;;;;;;;3.10;99.90;;;;;;5033069;28;20452;-72
2024/01/29 05:55:01;;;;;;;;;;;3.10;99.90;;;;;;5033083;28;19929;-72
2024/01/29 05:57:27;;;;;;;;;;;3.10;99.90;;;;;;5034233;28;19925;-72
2024/01/29 05:59:53;;;;;;;;;;;3.10;99.90;;;;;;5034989;28;19925;-72
2024/01/29 06:02:18;;;;;;;;;;;3.10;99.90;;;;;;5033363;28;20356;-72
2024/01/29 06:04:44;;;;;;;;;;;3.80;99.90;;;;;;5032714;28;19925;-72
2024/01/29 06:07:12;;;;;;;;;;;3.00;99.90;;;;;;5031220;28;20347;-81
2024/01/29 06:09:38;;;;;;;;;;;4.00;99.90;;;;;;5032917;28;20417;-72
2024/01/29 06:12:03;;;;;;;;;;;3.20;99.90;;;;;;5032783;28;19984;-73
2024/01/29 06:14:30;;;;;;;;;;;3.10;99.90;;;;;;5032615;28;20396;-73
2024/01/29 06:16:56;;;;;;;;;;;3.10;99.90;;;;;;5032032;28;19933;-71
2024/01/29 06:19:21;;;;;;;;;;;3.20;99.90;;;;;;5032651;28;19932;-72
2024/01/29 06:21:50;;;;;;;;;;;4.50;99.90;;;;;;5033208;28;19925;-77
2024/01/29 06:24:16;;;;;;;;;;;3.20;99.90;;;;;;5016334;28;20329;-71
2024/01/29 06:26:41;;;;;;;;;;;3.20;99.90;;;;;;5014751;28;19979;-73
2024/01/29 06:29:07;;;;;;;;;;;3.30;99.90;;;;;;5032721;28;20357;-71
2024/01/29 06:31:37;;;;;;;;;;;3.30;99.90;;;;;;5032172;28;19960;-79
2024/01/29 06:34:09;;;;;;;;;;;3.40;99.90;;;;;;5030309;28;19925;-81
2024/01/29 06:36:34;;;;;;;;;;;3.40;99.90;;;;;;5022903;28;19925;-84
2024/01/29 06:39:00;;;;;;;;;;;4.80;99.90;;;;;;5012484;28;20255;-81
2024/01/29 06:41:26;;;;;;;;;;;4.00;99.90;;;;;;5012964;28;20000;-78
2024/01/29 06:43:52;;;;;;;;;;;3.40;99.90;;;;;;5013682;28;19937;-83
2024/01/29 06:46:18;;;;;;;;;;;3.40;99.90;;;;;;5011503;28;19926;-74
2024/01/29 06:48:44;;;;;;;;;;;3.50;99.90;;;;;;5018812;28;19931;-75
2024/01/29 06:51:09;;;;;;;;;;;3.40;99.90;;;;;;5052536;28;19947;-73
2024/01/29 06:53:35;;;;;;;;;;;3.40;99.90;;;;;;5052199;28;20372;-73
2024/01/29 06:56:03;;;;;;;;;;;4.20;99.90;;;;;;5046293;28;19935;-78
2024/01/29 06:58:29;;;;;;;;;;;3.30;99.90;;;;;;5036534;28;19972;-76
2024/01/29 07:00:55;;;;;;;;;;;3.30;99.90;;;;;;5028228;28;19932;-76
2024/01/29 07:03:21;;;;;;;;;;;4.40;99.90;;;;;;5029280;28;19925;-77
2024/01/29 07:05:49;;;;;;;;;;;3.40;99.90;;;;;;5029699;28;20295;-79
2024/01/29 07:08:16;;;;;;;;;;;3.30;99.90;;;;;;5045904;28;19964;-75
2024/01/29 07:10:42;;;;;;;;;;;3.40;99.90;;;;;;5026414;28;19925;-76
2024/01/29 07:13:07;;;;;;;;;;;3.30;99.90;;;;;;5015381;28;19926;-76
2024/01/29 07:15:33;;;;;;;;;;;3.30;99.90;;;;;;5011824;28;19932;-75
2024/01/29 07:18:05;;;;;;;;;;;3.30;99.90;;;;;;5020980;28;19925;-75
2024/01/29 07:20:38;;;;;;;;;;;3.30;99.90;;;;;;5024054;28;19986;-77
2024/01/29 07:23:05;;;;;;;;;;;3.30;99.90;;;;;;5019200;28;19930;-76
2024/01/29 07:25:31;;;;;;;;;;;3.30;99.90;;;;;;5020772;28;19944;-76
2024/01/29 07:27:59;;;;;;;;;;;3.30;99.90;;;;;;5019558;28;19987;-81
2024/01/29 07:30:25;;;;;;;;;;;3.30;99.90;;;;;;5015113;28;20293;-80
2024/01/29 07:32:50;;;;;;;;;;;3.50;99.90;;;;;;5016512;28;19928;-79
2024/01/29 07:35:16;;;;;;;;;;;3.30;99.90;;;;;;5016898;28;20079;-79
2024/01/29 07:37:42;;;;;;;;;;;3.30;99.90;;;;;;5011273;28;19926;-80
2024/01/29 07:40:08;;;;;;;;;;;3.30;99.90;;;;;;5014951;28;19948;-80
2024/01/29 07:42:37;;;;;;;;;;;3.30;99.90;;;;;;5025518;28;19925;-76
2024/01/29 07:45:08;;;;;;;;;;;3.30;99.90;;;;;;5029114;28;19925;-73
2024/01/29 07:47:34;;;;;;;;;;;3.30;99.90;;;;;;5014563;28;20400;-75
2024/01/29 07:50:00;;;;;;;;;;;3.40;99.90;;;;;;5020647;28;19925;-77
2024/01/29 07:52:25;;;;;;;;;;;4.00;99.90;;;;;;5028645;28;19929;-77
2024/01/29 07:54:51;;;;;;;;;;;3.30;99.90;;;;;;5012436;28;20304;-73
2024/01/29 07:57:16;;;;;;;;;;;3.40;99.90;;;;;;5008859;28;19929;-73
2024/01/29 07:59:51;;;;;;;;;;;3.40;99.90;;;;;;5029703;28;19921;-74
2024/01/29 08:02:16;;;;;;;;;;;3.40;99.90;;;;;;5019473;28;19995;-74
2024/01/29 08:04:42;;;;;;;;;;;3.30;99.90;;;;;;5027456;28;19924;-74
2024/01/29 08:07:07;;;;;;;;;;;3.40;99.90;;;;;;5030548;28;20405;-74
2024/01/29 08:09:33;;;;;;;;;;;3.50;99.90;;;;;;5026996;28;20405;-75
2024/01/29 08:11:58;;;;;;;;;;;3.50;99.90;;;;;;5011426;28;19995;-74
2024/01/29 08:14:24;;;;;;;;;;;3.50;99.90;;;;;;5011585;28;19925;-73
2024/01/29 08:16:49;;;;;;;;;;;3.50;99.90;;;;;;5010813;28;19925;-73
2024/01/29 08:19:15;;;;;;;;;;;3.60;99.90;;;;;;5012614;28;19930;-73
2024/01/29 08:21:40;;;;;;;;;;;3.50;99.90;;;;;;5011598;28;19932;-73
2024/01/29 08:24:06;;;;;;;;;;;4.00;99.90;;;;;;5010673;28;19948;-74
2024/01/29 08:26:32;;;;;;;;;;;3.70;99.90;;;;;;5015085;28;19929;-73
2024/01/29 08:28:58;;;;;;;;;;;3.70;99.90;;;;;;5018534;28;19926;-76
2024/01/29 08:31:24;;;;;;;;;;;4.30;99.90;;;;;;5021438;28;19925;-77
2024/01/29 08:33:50;;;;;;;;;;;3.70;99.90;;;;;;5030176;28;20036;-76
2024/01/29 08:36:15;;;;;;;;;;;4.70;99.90;;;;;;5030065;28;19956;-76
2024/01/29 08:38:41;;;;;;;;;;;3.80;99.90;;;;;;5020392;28;19925;-76
2024/01/29 08:41:07;;;;;;;;;;;3.90;99.90;;;;;;5012755;28;19925;-77
2024/01/29 08:43:33;;;;;;;;;;;4.10;99.90;;;;;;5022486;28;19925;-78
2024/01/29 08:45:58;;;;;;;;;;;4.10;99.90;;;;;;5024707;28;20401;-81
2024/01/29 08:48:24;;;;;;;;;;;4.20;99.90;;;;;;5021729;28;19932;-82
2024/01/29 08:50:49;;;;;;;;;;;4.20;99.90;;;;;;5034006;28;20019;-77
2024/01/29 08:53:15;;;;;;;;;;;4.80;99.90;;;;;;5013469;28;19929;-75
2024/01/29 08:55:41;;;;;;;;;;;5.00;99.90;;;;;;5019963;28;19928;-76
2024/01/29 08:58:06;;;;;;;;;;;4.40;99.90;;;;;;5033571;28;20518;-77
2024/01/29 09:00:32;;;;;;;;;;;5.20;99.90;;;;;;5029776;28;19983;-79
2024/01/29 09:02:58;;;;;;;;;;;4.60;99.90;;;;;;5022898;28;19970;-74
2024/01/29 09:05:24;;;;;;;;;;;4.70;99.90;;;;;;5022958;28;19928;-73
2024/01/29 09:07:51;;;;;;;;;;;4.70;99.90;;;;;;5026087;28;19925;-71
2024/01/29 09:10:16;;;;;;;;;;;4.80;99.90;;;;;;5029665;28;20376;-72
2024/01/29 09:12:42;;;;;;;;;;;4.90;99.90;;;;;;5032360;28;19932;-72
2024/01/29 09:15:09;;;;;;;;;;;5.40;99.90;;;;;;5033871;28;19926;-71
2024/01/29 09:17:35;;;;;;;;;;;5.00;99.90;;;;;;5027056;28;20357;-72
2024/01/29 09:20:01;;;;;;;;;;;5.70;99.90;;;;;;5033110;28;19952;-71
2024/01/29 09:22:26;;;;;;;;;;;5.10;99.90;;;;;;5027288;28;19926;-72
2024/01/29 09:24:55;;;;;;;;;;;5.50;99.90;;;;;;5013117;28;20440;-71
2024/01/29 09:27:20;;;;;;;;;;;5.20;99.90;;;;;;5011309;28;19933;-72
2024/01/29 09:29:46;;;;;;;;;;;5.30;99.90;;;;;;5013066;28;20352;-72
2024/01/29 09:32:11;;;;;;;;;;;5.30;99.90;;;;;;5013398;28;19925;-72
2024/01/29 09:34:37;;;;;;;;;;;5.30;99.90;;;;;;5011992;28;19936;-71
2024/01/29 09:37:03;;;;;;;;;;;5.40;99.90;;;;;;5012366;28;20297;-72
2024/01/29 09:39:28;;;;;;;;;;;5.50;99.90;;;;;;5013043;28;19964;-72
2024/01/29 09:41:59;;;;;;;;;;;5.60;99.90;;;;;;5013354;28;19925;-72
2024/01/29 09:44:26;;;;;;;;;;;6.60;99.90;;;;;;5030106;28;19925;-72
2024/01/29 09:46:54;;;;;;;;;;;5.60;99.90;;;;;;5035153;28;19925;-71
2024/01/29 09:49:22;;;;;;;;;;;5.60;99.90;;;;;;5032760;28;20019;-71
2024/01/29 09:51:48;;;;;;;;;;;5.70;99.90;;;;;;5031181;28;19925;-71
2024/01/29 09:54:14;;;;;;;;;;;5.80;99.90;;;;;;5022098;28;20283;-72
2024/01/29 09:56:39;;;;;;;;;;;6.10;99.90;;;;;;5012890;28;19989;-72
2024/01/29 09:59:05;;;;;;;;;;;5.90;99.90;;;;;;5015252;28;19925;-71
2024/01/29 10:01:31;;;;;;;;;;;5.90;99.90;;;;;;5022579;28;20027;-72
2024/01/29 10:03:56;;;;;;;;;;;6.00;99.90;;;;;;5013001;28;19932;-71
2024/01/29 10:06:22;;;;;;;;;;;6.00;99.90;;;;;;5026512;28;19925;-71
2024/01/29 10:08:47;;;;;;;;;;;6.10;99.90;;;;;;5012989;28;20281;-71
2024/01/29 10:11:13;;;;;;;;;;;6.00;99.90;;;;;;5013253;28;20373;-72
2024/01/29 10:13:39;;;;;;;;;;;6.10;99.90;;;;;;5014535;28;19925;-71
2024/01/29 10:16:06;;;;;;;;;;;6.10;99.90;;;;;;5012522;28;19948;-72
2024/01/29 10:18:37;;;;;;;;;;;6.00;99.90;;;;;;5013409;28;19925;-71
2024/01/29 10:21:04;;;;;;;;;;;6.00;99.90;;;;;;5014638;28;19964;-72
2024/01/29 10:23:30;;;;;;;;;;;6.10;99.90;;;;;;5032059;28;19925;-71
2024/01/29 10:25:56;;;;;;;;;;;6.10;99.90;;;;;;5017969;28;20015;-71
2024/01/29 10:28:26;;;;;;;;;;;6.80;99.90;;;;;;5012787;28;19980;-72
2024/01/29 10:30:58;;;;;;;;;;;6.40;99.90;;;;;;5012827;28;20036;-72
2024/01/29 10:33:23;;;;;;;;;;;6.20;99.90;;;;;;5014209;28;19925;-73
2024/01/29 10:35:49;;;;;;;;;;;6.30;99.90;;;;;;5018669;28;20403;-73
2024/01/29 10:38:18;;;;;;;;;;;6.40;99.90;;;;;;5033090;28;19925;-71
2024/01/29 10:40:45;;;;;;;;;;;6.80;99.90;;;;;;5028522;28;20357;-72
2024/01/29 10:43:18;;;;;;;;;;;6.50;99.90;;;;;;5013559;28;20293;-71
2024/01/29 10:45:46;;;;;;;;;;;6.50;99.90;;;;;;5012278;28;19929;-71
2024/01/29 10:48:32;;;;;;;;;;;6.60;99.90;;;;;;5012530;28;19936;-71
2024/01/29 10:50:58;;;;;;;;;;;6.50;99.90;;;;;;5015158;28;20433;-71
2024/01/29 10:53:24;;;;;;;;;;;7.40;99.90;;;;;;5032592;28;20020;-71
2024/01/29 10:55:51;;;;;;;;;;;6.70;99.90;;;;;;5030330;28;20024;-71
2024/01/29 10:58:17;;;;;;;;;;;6.90;99.90;;;;;;5031403;28;19936;-72
2024/01/29 11:00:43;;;;;;;;;;;7.10;99.90;;;;;;5033810;28;19926;-71
2024/01/29 11:03:17;;;;;;;;;;;7.50;99.90;;;;;;5032557;28;19970;-72
2024/01/29 11:05:49;;;;;;;;;;;6.80;99.90;;;;;;5029573;28;19963;-79
2024/01/29 11:08:19;;;;;;;;;;;6.80;99.90;;;;;;5027259;28;19925;-71
2024/01/29 11:10:45;;;;;;;;;;;6.80;99.90;;;;;;5033446;28;20018;-81
2024/01/29 11:13:12;;;;;;;;;;;6.90;99.90;;;;;;5031069;28;19963;-75
2024/01/29 11:15:37;;;;;;;;;;;6.70;99.90;;;;;;5032084;28;19925;-79
2024/01/29 11:18:04;;;;;;;;;;;6.80;99.90;;;;;;5018996;28;20266;-76
2024/01/29 11:20:30;;;;;;;;;;;6.80;99.90;;;;;;5012770;28;19921;-77
2024/01/29 11:23:05;;;;;;;;;;;7.10;99.90;;;;;;5012155;28;20026;-76
2024/01/29 11:25:32;;;;;;;;;;;6.80;99.90;;;;;;5016283;28;19921;-83
2024/01/29 11:27:59;;;;;;;;;;;6.90;99.90;;;;;;5013725;28;20016;-81
2024/01/29 11:30:25;;;;;;;;;;;7.20;99.90;;;;;;5021467;28;19926;-80
2024/01/29 11:32:53;;;;;;;;;;;7.00;99.90;;;;;;5012183;28;19968;-74
2024/01/29 11:35:20;;;;;;;;;;;6.80;99.90;;;;;;5010792;28;20016;-74
2024/01/29 11:37:49;;;;;;;;;;;6.80;99.90;;;;;;5022058;28;20377;-74
2024/01/29 11:40:33;;;;;;;;;;;6.70;99.90;;;;;;5030195;28;19925;-73
2024/01/29 11:43:11;;;;;;;;;;;6.70;99.90;;;;;;5030416;28;20353;-74
2024/01/29 11:45:37;;;;;;;;;;;6.70;99.90;;;;;;5031964;28;19979;-73
2024/01/29 11:48:12;;;;;;;;;;;6.90;99.90;;;;;;5028464;28;20323;-73
2024/01/29 11:50:39;;;;;;;;;;;6.70;99.90;;;;;;5031323;28;20409;-73
2024/01/29 11:53:05;;;;;;;;;;;6.80;99.90;;;;;;5031193;28;19936;-74
2024/01/29 11:55:31;;;;;;;;;;;7.90;99.90;;;;;;5030682;28;19925;-73
2024/01/29 11:57:56;;;;;;;;;;;6.90;99.90;;;;;;5021496;28;19932;-73
2024/01/29 12:00:23;;;;;;;;;;;7.40;99.90;;;;;;5016249;28;20380;-83
2024/01/29 12:02:48;;;;;;;;;;;7.50;99.90;;;;;;5030636;28;20388;-76
2024/01/29 12:05:14;;;;;;;;;;;7.00;99.90;;;;;;5016655;28;19925;-80
2024/01/29 12:07:40;;;;;;;;;;;7.10;99.90;;;;;;5011838;28;20008;-76
2024/01/29 12:10:06;;;;;;;;;;;7.20;99.90;;;;;;5010854;28;19933;-76
2024/01/29 12:12:32;;;;;;;;;;;7.20;99.90;;;;;;5011822;28;19925;-77
2024/01/29 12:14:57;;;;;;;;;;;7.20;99.90;;;;;;5017088;28;19971;-73
2024/01/29 12:17:23;;;;;;;;;;;8.10;99.90;;;;;;5033018;28;19926;-73
2024/01/29 12:19:51;;;;;;;;;;;7.40;99.90;;;;;;5025646;28;19967;-73
2024/01/29 12:22:18;;;;;;;;;;;8.10;99.90;;;;;;5018339;28;19930;-73
2024/01/29 12:24:44;;;;;;;;;;;7.50;99.90;;;;;;5023220;28;19929;-74
2024/01/29 12:27:09;;;;;;;;;;;8.00;99.90;;;;;;5035462;28;19921;-76
2024/01/29 12:29:35;;;;;;;;;;;8.20;99.90;;;;;;5034464;28;19932;-72
2024/01/29 12:32:11;;;;;;;;;;;7.50;99.90;;;;;;5033206;28;19932;-74
2024/01/29 12:34:46;;;;;;;;;;;7.50;99.90;;;;;;5023199;28;20353;-73
2024/01/29 12:37:18;;;;;;;;;;;7.70;99.90;;;;;;5014217;28;20407;-73
2024/01/29 12:39:54;;;;;;;;;;;7.60;99.90;;;;;;5024902;28;19925;-73
2024/01/29 12:42:23;;;;;;;;;;;7.50;99.90;;;;;;5016396;28;19933;-73
2024/01/29 12:44:51;;;;;;;;;;;7.60;99.90;;;;;;5013271;28;19930;-72
2024/01/29 12:47:18;;;;;;;;;;;7.50;99.90;;;;;;5014365;28;19933;-73
2024/01/29 12:49:45;;;;;;;;;;;7.60;99.90;;;;;;5015951;28;20401;-74
2024/01/29 12:52:11;;;;;;;;;;;7.60;99.90;;;;;;5021767;28;19978;-75
2024/01/29 12:54:36;;;;;;;;;;;7.70;99.90;;;;;;5019318;28;19929;-74
2024/01/29 12:57:02;;;;;;;;;;;7.80;99.90;;;;;;5013798;28;19926;-74
2024/01/29 12:59:28;;;;;;;;;;;7.70;99.90;;;;;;5013355;28;19930;-74
2024/01/29 13:01:54;;;;;;;;;;;7.70;99.90;;;;;;5014230;28;19937;-73
2024/01/29 13:04:19;;;;;;;;;;;7.80;99.90;;;;;;5013812;28;19926;-73
2024/01/29 13:06:45;;;;;;;;;;;7.70;99.90;;;;;;5014438;28;20302;-73
2024/01/29 13:09:11;;;;;;;;;;;7.80;99.90;;;;;;5015823;28;19929;-74
2024/01/29 13:11:36;;;;;;;;;;;7.80;99.90;;;;;;5011643;28;19926;-80
2024/01/29 13:14:02;;;;;;;;;;;7.90;99.90;;;;;;5033110;28;19972;-86
2024/01/29 13:16:27;;;;;;;;;;;8.20;99.90;;;;;;5033024;28;19960;-73
2024/01/29 13:18:53;;;;;;;;;;;7.70;99.90;;;;;;5012709;28;19925;-87
2024/01/29 13:21:21;;;;;;;;;;;8.00;99.90;;;;;;5013645;28;19929;-76
2024/01/29 13:23:47;;;;;;;;;;;8.30;99.90;;;;;;5013785;28;20336;-74
2024/01/29 13:26:15;;;;;;;;;;;8.00;99.90;;;;;;5027983;28;19932;-75
2024/01/29 13:28:44;;;;;;;;;;;8.70;99.90;;;;;;5026399;28;20368;-75
2024/01/29 13:31:09;;;;;;;;;;;8.50;99.90;;;;;;5052531;28;20396;-76
2024/01/29 13:33:37;;;;;;;;;;;8.00;99.90;;;;;;5018187;28;19926;-75
2024/01/29 13:36:03;;;;;;;;;;;8.30;99.90;;;;;;5017602;28;19925;-75
2024/01/29 13:38:29;;;;;;;;;;;8.20;99.90;;;;;;5043474;28;20015;-73
2024/01/29 13:40:54;;;;;;;;;;;8.70;99.90;;;;;;5022891;28;20348;-75
2024/01/29 13:43:20;;;;;;;;;;;8.10;99.90;;;;;;5026672;28;19925;-76
2024/01/29 13:45:46;;;;;;;;;;;8.00;99.90;;;;;;5026397;28;20044;-74
2024/01/29 13:48:11;;;;;;;;;;;8.50;99.90;;;;;;5024086;28;20333;-75
2024/01/29 13:50:37;;;;;;;;;;;8.00;99.90;;;;;;5031899;28;19925;-75
2024/01/29 13:53:03;;;;;;;;;;;7.90;99.90;;;;;;5026411;28;19933;-75
2024/01/29 13:55:29;;;;;;;;;;;7.90;99.90;;;;;;5018098;28;20300;-74
2024/01/29 13:57:54;;;;;;;;;;;8.00;99.90;;;;;;5019878;28;19933;-74
2024/01/29 14:00:20;;;;;;;;;;;7.90;99.90;;;;;;5030952;28;19931;-75
2024/01/29 14:02:45;;;;;;;;;;;7.90;99.90;;;;;;5030654;28;20313;-75
2024/01/29 14:05:11;;;;;;;;;;;8.50;99.90;;;;;;5014065;28;19929;-74
2024/01/29 14:07:39;;;;;;;;;;;8.20;99.90;;;;;;5023737;28;19925;-75
2024/01/29 14:10:05;;;;;;;;;;;8.50;99.90;;;;;;5015940;28;19931;-76
2024/01/29 14:12:30;;;;;;;;;;;8.00;99.90;;;;;;5022660;28;19925;-77
2024/01/29 14:14:56;;;;;;;;;;;8.10;99.90;;;;;;5022574;28;19968;-76
2024/01/29 14:17:22;;;;;;;;;;;8.20;99.90;;;;;;5023380;28;19925;-76
2024/01/29 14:19:51;;;;;;;;;;;8.30;99.90;;;;;;5024442;28;19953;-74
2024/01/29 14:22:18;;;;;;;;;;;8.40;99.90;;;;;;5016764;28;19929;-73
2024/01/29 14:24:44;;;;;;;;;;;8.40;99.90;;;;;;5018074;28;19925;-81
2024/01/29 14:27:09;;;;;;;;;;;8.40;99.90;;;;;;5026203;28;19929;-81